Niantic, Connecticut
Current Conditions -  °F | °C
As of 12:56 PM on Friday 24 Oct 2014 (Local Time) from KGON Reporting Station
Overcast Overcast  
Wind Chill: 53°   Ceiling: 2400
Heat Index: 53°   Visibility: 10mi
Dew Point: 45°   Wind: 14mph
Humidity: 74%   Direction: 320°NW
Pressure: 29.71"   Gusts: 21mph
Location:  41.33°N, 72.19°W
Report Text: KGON 241656Z 32012G18KT 10SM OVC024 12/07 A2971 RMK AO2 SLP061 T01170072
Loading
Personal Weather Stations






























Interactive Weather Map
Tropical Storm Tracking
New forecast layout! Learn more

10-Day Weather Forecast

Advertisements
Track Severe Weather on mobile